Dakar, Senegal

1:02 AM GMT on August 02, 2014 (GMT +0000)
Ngor Almadies (IDAKARDA2) Elev 46 ft | 14.74 °N, 17.51 °W | Change Station

Current weather conditions updated 1 second ago

Partly Cloudy
Partly Cloudy
81.2 °F
Feels Like 87 °F
N
2.0
Wind Variable Wind from NW
Gusts 3.0 mph

Today is forecast to be Cooler than yesterday.

Today
High -- | Low -- °F
--% Chance of Precip.
Yesterday
High -- | Low -- °F
Precip. -- in
6:53 AM 7:39 PM
Waxing Crescent, 31% visible
Pressure 29.95 in
Visibility 6.2 miles
Clouds Few 700 ft
Heat Index 87 °F
Dew Point 75 °F
Humidity 82%
Rainfall 0.00 in
Snow Depth Not available.
UV 0 out of 12
Pollen Not available.
Air Quality Not available.
Flu Activity Not available.
METAR GOOY 020100Z 31006KT 280V350 9999 FEW007 27/24 Q1014 NOSIG

More Conditions Fewer Conditions

Pressure 29.95 in
Visibility 6.2 miles
Clouds Few 700 ft
Heat Index 87 °F
Dew Point 75 °F
Humidity 82%
Rainfall 0.00 in
Snow Depth Not available.
UV 0 out of 12
Pollen Not available.
Air Quality Not available.
Flu Activity Not available.
METAR GOOY 020100Z 31006KT 280V350 9999 FEW007 27/24 Q1014 NOSIG

More Conditions Fewer Conditions

10-Day Weather Forecast

Almanac

Astronomy

Aug. 02, 2014 Rise Set
Actual Time 6:53 AM GMT 7:39 PM GMT
Civil Twilight 6:30 AM GMT 8:01 PM GMT
Nautical Twilight 6:04 AM GMT 8:28 PM GMT
Astronomical Twilight 5:37 AM GMT 8:55 PM GMT
Moon 11:58 AM GMT 11:59 PM GMT
Length of Visible Light 13h 30m
Length of Day
12h 45m
Tomorrow will be 0m 37s shorter.
Waxing Crescent, 31% of the Moon is Illuminated
Aug 1
Waxing Crescent
Aug 3
First Quarter
Aug 10
Full
Aug 17
Last Quarter
Aug 25
New

Yesterday's Extremes

Country Highs Country Lows

Community

WunderPhotos

Upload Photos

1,739,780 photos uploaded!

Nearby

Snow Depth

Not available.

Earthquake Activity

City Distance Mag. Time & Date
No recent earthquake activity has been reported nearby.
Minimum magnitude displayed is 2.5.

Coastal Water Temperatures

Place Temperature
No Stations Reporting

Nearby Weather Stations

Station Location Temp. Heat Index Dew Point Humidity Wind Precip. Elev Updated Type
Ngor Almadies, Dakar 81.2 °F 87 °F 75 °F 82% NW  at  2.0 mph 0.00 in / hr 46 ft 1:02 AM GMT Rapid Fire

Show More Stations Show Fewer Stations